Time;durP1;ratioP1;P1;durP2;ratioP2;P2;SDS_P1;SDS_P2;PMS_P1;PMS_P2;Temp;Humidity;BMP_temperature;BMP_pressure;BME280_temperature;BME280_humidity;BME280_pressure;Samples;Min_cycle;Max_cycle;Signal;HPM_P1;HPM_P2
2022/10/03 00:00:19;;;;;;;16.20;4.60;;;;;;;8.46;100.00;102387.72;5261931;28;20387;-73
2022/10/03 00:02:56;;;;;;;13.13;5.75;;;;;;;8.34;100.00;102386.56;5244652;28;20602;-73
2022/10/03 00:05:43;;;;;;;18.00;5.43;;;;;;;8.37;100.00;102394.44;5262410;28;20024;-71
2022/10/03 00:08:26;;;;;;;16.65;5.03;;;;;;;8.39;100.00;102387.56;5262529;28;20071;-71
2022/10/03 00:11:48;;;;;;;16.50;5.13;;;;;;;8.34;100.00;102394.38;5261581;28;20428;-71
2022/10/03 00:14:38;;;;;;;16.42;5.30;;;;;;;8.36;100.00;102386.63;5178263;28;20038;-72
2022/10/03 00:17:14;;;;;;;16.52;5.63;;;;;;;8.31;100.00;102383.91;5262773;28;20041;-72
2022/10/03 00:20:15;;;;;;;15.45;5.78;;;;;;;8.27;100.00;102392.47;5262592;28;20025;-72
2022/10/03 00:23:03;;;;;;;17.02;5.47;;;;;;;8.21;100.00;102387.13;5262834;28;20075;-72
2022/10/03 00:26:27;;;;;;;14.60;5.47;;;;;;;8.15;100.00;102389.59;5262515;28;20472;-74
2022/10/03 00:29:17;;;;;;;;;;;;;;;8.11;100.00;102398.16;5263422;28;20437;-72
2022/10/03 00:32:11;;;;;;;18.70;5.63;;;;;;;8.06;100.00;102392.84;5263452;28;19912;-72
2022/10/03 00:35:01;;;;;;;13.75;4.72;;;;;;;7.95;100.00;102396.91;5265635;28;20087;-72
2022/10/03 00:37:36;;;;;;;15.60;5.45;;;;;;;7.96;100.00;102402.16;5265674;28;20021;-72
2022/10/03 00:40:10;;;;;;;13.07;5.38;;;;;;;7.96;100.00;102407.34;5266444;28;20029;-74
2022/10/03 00:43:01;;;;;;;13.88;4.88;;;;;;;7.89;100.00;102407.16;5266325;28;20037;-72
2022/10/03 00:45:42;;;;;;;15.57;6.20;;;;;;;7.85;100.00;102411.41;5266570;28;20060;-72
2022/10/03 00:48:22;;;;;;;15.63;5.55;;;;;;;7.88;100.00;102413.19;5266721;28;20107;-72
2022/10/03 00:51:32;;;;;;;14.88;5.45;;;;;;;7.76;100.00;102412.06;5266465;28;20480;-72
2022/10/03 00:54:33;;;;;;;12.90;4.88;;;;;;;7.73;100.00;102419.75;5266301;28;20037;-72
2022/10/03 00:57:15;;;;;;;17.90;5.30;;;;;;;7.75;100.00;102418.06;5266166;28;20031;-72
2022/10/03 00:59:49;;;;;;;18.20;5.80;;;;;;;7.80;100.00;102415.59;5267018;28;20033;-72
2022/10/03 01:02:31;;;;;;;12.30;5.78;;;;;;;7.77;100.00;102421.59;5266508;28;20033;-72
2022/10/03 01:05:38;;;;;;;14.15;5.88;;;;;;;7.76;100.00;102424.13;5265103;28;20526;-72
2022/10/03 01:08:40;;;;;;;21.67;6.50;;;;;;;7.73;100.00;102430.16;5265933;28;20036;-72
2022/10/03 01:11:26;;;;;;;13.82;5.68;;;;;;;7.73;100.00;102432.75;5266225;28;20041;-72
2022/10/03 01:14:14;;;;;;;17.27;6.65;;;;;;;7.68;100.00;102436.94;5265167;28;20106;-72
2022/10/03 01:17:22;;;;;;;24.42;6.53;;;;;;;7.67;100.00;102449.03;5265772;28;20401;-73
2022/10/03 01:20:08;;;;;;;18.75;6.93;;;;;;;7.66;100.00;102444.69;5265767;28;20033;-72
2022/10/03 01:22:46;;;;;;;18.52;6.40;;;;;;;7.68;100.00;102439.53;5264390;28;20044;-72
2022/10/03 01:25:19;;;;;;;20.08;6.78;;;;;;;7.72;100.00;102445.69;5265643;28;20382;-72
2022/10/03 01:30:49;;;;;;;19.40;6.90;;;;;;;7.65;100.00;102448.13;5265632;28;20033;-72
2022/10/03 01:33:36;;;;;;;14.73;6.05;;;;;;;7.61;100.00;102445.41;5265581;28;20025;-72
2022/10/03 01:36:27;;;;;;;13.88;6.95;;;;;;;7.57;100.00;102449.63;5264461;28;20031;-72
2022/10/03 01:39:13;;;;;;;18.95;7.15;;;;;;;7.50;100.00;102445.09;5266106;28;20475;-72
2022/10/03 01:42:00;;;;;;;19.23;6.38;;;;;;;7.52;100.00;102448.63;5264864;28;20040;-72
2022/10/03 01:44:39;;;;;;;20.13;7.57;;;;;;;7.48;100.00;102444.19;5265929;28;20033;-72
2022/10/03 01:47:27;;;;;;;21.38;8.20;;;;;;;7.46;100.00;102451.06;5264579;28;20393;-72
2022/10/03 01:50:07;;;;;;;19.58;7.70;;;;;;;7.45;100.00;102450.19;5265567;28;20036;-72
2022/10/03 01:52:57;;;;;;;21.98;7.20;;;;;;;7.39;100.00;102439.66;5265124;28;20064;-73
2022/10/03 01:55:49;;;;;;;28.10;9.73;;;;;;;7.43;100.00;102451.84;5265149;28;20448;-73
2022/10/03 01:58:36;;;;;;;17.30;6.85;;;;;;;7.41;100.00;102450.06;5265541;28;20139;-73
2022/10/03 02:01:30;;;;;;;15.35;7.97;;;;;;;7.40;100.00;102441.38;5264872;28;20373;-73
2022/10/03 02:04:30;;;;;;;18.60;8.15;;;;;;;7.38;100.00;102450.84;5264914;28;20029;-73
2022/10/03 02:07:39;;;;;;;21.33;7.57;;;;;;;7.42;100.00;102449.22;5265166;28;20031;-72
2022/10/03 02:10:39;;;;;;;18.90;7.40;;;;;;;7.38;100.00;102452.56;5265415;28;20056;-73
2022/10/03 02:13:13;;;;;;;16.05;6.95;;;;;;;7.32;100.00;102449.81;5264998;28;20021;-73
2022/10/03 02:16:09;;;;;;;16.73;7.40;;;;;;;7.30;100.00;102461.00;5264392;28;20392;-73
2022/10/03 02:18:51;;;;;;;14.57;7.20;;;;;;;7.38;100.00;102465.56;5263383;28;20037;-73
2022/10/03 02:21:29;;;;;;;22.15;7.70;;;;;;;7.33;100.00;102467.16;5264924;28;20029;-73
2022/10/03 02:24:06;;;;;;;20.25;8.60;;;;;;;7.30;100.00;102463.59;5264598;28;20062;-73
2022/10/03 02:26:37;;;;;;;24.17;8.00;;;;;;;7.37;100.00;102456.88;5264233;28;20083;-73
2022/10/03 02:29:23;;;;;;;21.17;8.00;;;;;;;7.28;100.00;102456.63;5264513;28;20025;-72
2022/10/03 02:32:33;;;;;;;12.90;7.07;;;;;;;7.23;100.00;102458.19;5264601;28;20504;-72
2022/10/03 02:35:19;;;;;;;19.83;7.70;;;;;;;7.26;100.00;102453.09;5223053;28;20128;-72
2022/10/03 02:38:04;;;;;;;21.65;8.07;;;;;;;7.20;100.00;102460.75;5264314;28;20028;-73
2022/10/03 02:41:13;;;;;;;20.55;9.13;;;;;;;7.12;100.00;102468.28;5264106;28;20090;-72
2022/10/03 02:44:36;;;;;;;16.10;8.02;;;;;;;7.06;100.00;102465.53;5264707;28;20032;-73
2022/10/03 02:47:22;;;;;;;14.73;7.05;;;;;;;7.06;100.00;102457.75;5264202;28;20029;-73
2022/10/03 02:50:15;;;;;;;18.50;8.20;;;;;;;7.06;100.00;102462.94;5264351;28;20033;-73
2022/10/03 02:53:14;;;;;;;17.63;8.00;;;;;;;7.02;100.00;102454.19;5264495;28;20063;-73
2022/10/03 02:56:24;;;;;;;17.58;7.88;;;;;;;6.99;100.00;102454.09;5263389;28;20114;-73
2022/10/03 02:59:53;;;;;;;16.63;7.82;;;;;;;6.95;100.00;102449.66;5264763;28;20471;-73
2022/10/03 03:03:01;;;;;;;16.73;7.80;;;;;;;6.91;100.00;102459.06;5179180;28;20035;-72
2022/10/03 03:05:38;;;;;;;16.48;8.35;;;;;;;6.89;100.00;102457.25;5264074;28;20031;-73
2022/10/03 03:08:36;;;;;;;16.45;7.65;;;;;;;6.88;100.00;102453.78;5263627;28;20131;-73
2022/10/03 03:11:38;;;;;;;18.13;8.90;;;;;;;6.85;100.00;102453.69;5233178;28;20041;-73
2022/10/03 03:14:23;;;;;;;15.00;7.53;;;;;;;6.78;100.00;102454.34;5264092;28;20064;-72
2022/10/03 03:17:13;;;;;;;18.05;7.97;;;;;;;6.80;100.00;102449.22;5262491;28;20523;-73
2022/10/03 03:20:04;;;;;;;15.63;7.47;;;;;;;6.68;100.00;102458.38;5264049;28;20032;-73
2022/10/03 03:23:20;;;;;;;16.90;7.55;;;;;;;6.73;100.00;102463.72;5263954;28;20036;-73
2022/10/03 03:26:21;;;;;;;20.42;8.90;;;;;;;6.74;100.00;102465.44;5232845;28;20048;-73
2022/10/03 03:29:10;;;;;;;22.55;9.27;;;;;;;6.76;100.00;102471.53;5263814;28;20029;-73
2022/10/03 03:32:02;;;;;;;18.25;8.90;;;;;;;6.68;100.00;102457.47;5263112;28;20392;-73
2022/10/03 03:34:39;;;;;;;16.42;8.05;;;;;;;6.69;100.00;102470.50;5263067;28;20063;-73
2022/10/03 03:37:56;;;;;;;18.95;8.35;;;;;;;6.58;100.00;102464.09;5263163;28;20041;-73
2022/10/03 03:40:37;;;;;;;18.58;7.90;;;;;;;6.54;100.00;102468.31;5221484;28;20044;-73
2022/10/03 03:43:34;;;;;;;14.07;7.53;;;;;;;6.55;100.00;102475.28;5263285;28;20436;-73
2022/10/03 03:46:28;;;;;;;13.95;7.95;;;;;;;6.48;100.00;102475.91;5262163;28;20037;-73
2022/10/03 03:49:41;;;;;;;16.73;7.60;;;;;;;6.53;100.00;102474.31;5263575;28;20484;-73
2022/10/03 03:52:12;;;;;;;16.52;7.07;;;;;;;6.46;100.00;102474.09;5178901;28;20031;-72
2022/10/03 03:55:19;;;;;;;13.77;8.70;;;;;;;6.46;100.00;102476.69;5178539;28;20037;-73
2022/10/03 03:58:08;;;;;;;19.05;7.78;;;;;;;6.51;100.00;102475.13;5246921;28;20036;-72
2022/10/03 04:00:55;;;;;;;20.45;8.10;;;;;;;6.50;100.00;102478.53;5262694;28;20036;-72
2022/10/03 04:03:58;;;;;;;20.15;8.52;;;;;;;6.47;100.00;102473.25;5262935;28;20428;-72
2022/10/03 04:06:56;;;;;;;13.40;8.90;;;;;;;6.43;100.00;102476.59;5262833;28;20032;-74
2022/10/03 04:09:43;;;;;;;13.25;7.60;;;;;;;6.44;100.00;102479.25;5263148;28;20029;-72
2022/10/03 04:13:08;;;;;;;22.48;8.88;;;;;;;6.37;100.00;102475.53;5262336;28;20094;-73
2022/10/03 04:15:43;;;;;;;21.52;9.30;;;;;;;6.44;100.00;102479.25;5178044;28;20121;-73
2022/10/03 04:21:38;;;;;;;15.07;8.63;;;;;;;6.38;100.00;102489.41;5262238;28;20045;-72
2022/10/03 04:24:30;;;;;;;17.13;8.43;;;;;;;6.48;100.00;102490.56;5262551;28;20055;-73
2022/10/03 04:27:19;;;;;;;22.25;8.90;;;;;;;6.48;100.00;102487.97;5262448;28;20068;-73
2022/10/03 04:30:08;;;;;;;24.48;9.98;;;;;;;6.48;100.00;102496.63;5262468;28;20431;-72
2022/10/03 04:32:45;;;;;;;20.67;8.90;;;;;;;6.52;100.00;102492.41;5263160;28;20029;-73
2022/10/03 04:35:41;;;;;;;23.77;10.20;;;;;;;6.42;100.00;102492.97;5263179;28;20025;-72
2022/10/03 04:38:21;;;;;;;17.02;9.50;;;;;;;6.39;100.00;102476.50;5262534;28;20021;-72
2022/10/03 04:41:12;;;;;;;26.10;8.90;;;;;;;6.44;100.00;102492.19;5262906;28;20064;-71
2022/10/03 04:43:57;;;;;;;16.85;9.52;;;;;;;6.39;100.00;102491.13;5262260;28;20029;-72
2022/10/03 04:46:42;;;;;;;19.08;8.68;;;;;;;6.46;100.00;102487.06;5262233;28;20366;-74
2022/10/03 04:49:34;;;;;;;19.30;8.70;;;;;;;6.42;100.00;102483.47;5262454;28;20060;-72
2022/10/03 04:52:13;;;;;;;17.42;8.60;;;;;;;6.43;100.00;102482.66;5262438;28;20029;-72
2022/10/03 04:54:47;;;;;;;20.70;8.68;;;;;;;6.47;100.00;102491.38;5262241;28;20039;-72
2022/10/03 04:57:49;;;;;;;22.88;9.13;;;;;;;6.46;100.00;102480.16;5262067;28;20044;-72
2022/10/03 05:00:28;;;;;;;19.02;9.50;;;;;;;6.50;100.00;102478.53;5262114;28;20195;-72
2022/10/03 05:03:00;;;;;;;22.75;9.00;;;;;;;6.45;100.00;102486.16;5261939;28;20025;-72
2022/10/03 05:05:43;;;;;;;19.03;8.03;;;;;;;6.45;100.00;102487.88;5262140;28;20345;-72
2022/10/03 05:08:17;;;;;;;16.00;8.68;;;;;;;6.46;100.00;102487.94;5261848;28;20068;-72
2022/10/03 05:11:04;;;;;;;17.10;9.30;;;;;;;6.45;100.00;102493.06;5261664;28;20033;-74
2022/10/03 05:13:55;;;;;;;24.38;9.02;;;;;;;6.43;100.00;102490.41;5261139;28;20203;-73
2022/10/03 05:16:31;;;;;;;15.38;8.82;;;;;;;6.43;100.00;102494.72;5262130;28;20120;-73
2022/10/03 05:19:41;;;;;;;21.90;8.65;;;;;;;6.34;100.00;102501.38;5265526;28;20041;-73
2022/10/03 05:22:24;;;;;;;23.85;8.90;;;;;;;6.45;100.00;102498.25;5264274;28;20119;-73
2022/10/03 05:25:17;;;;;;;16.30;8.80;;;;;;;6.45;100.00;102501.69;5265914;28;20124;-73
2022/10/03 05:27:52;;;;;;;20.92;10.57;;;;;;;6.46;100.00;102506.06;5265675;28;20463;-71
2022/10/03 05:30:40;;;;;;;13.05;8.10;;;;;;;6.44;100.00;102510.31;5265890;28;20036;-72
2022/10/03 05:33:31;;;;;;;16.48;9.32;;;;;;;6.42;100.00;102506.78;5264923;28;20043;-72
2022/10/03 05:36:54;;;;;;;20.80;10.00;;;;;;;6.33;100.00;102511.69;5265897;28;20415;-72
2022/10/03 05:39:33;;;;;;;19.65;8.90;;;;;;;6.38;100.00;102513.56;5220973;28;20036;-72
2022/10/03 05:42:36;;;;;;;22.02;9.07;;;;;;;6.30;100.00;102522.81;5265333;28;20021;-72
2022/10/03 05:45:46;;;;;;;21.65;9.80;;;;;;;6.39;100.00;102525.72;5265522;28;20036;-73
2022/10/03 05:48:20;;;;;;;20.90;9.05;;;;;;;6.44;100.00;102531.03;5264088;28;20480;-71
2022/10/03 05:51:11;;;;;;;21.30;10.98;;;;;;;6.48;100.00;102527.72;5264923;28;20074;-72
2022/10/03 05:53:55;;;;;;;18.08;9.65;;;;;;;6.54;100.00;102524.44;5265148;28;20087;-72
2022/10/03 05:56:38;;;;;;;15.60;9.68;;;;;;;6.53;100.00;102522.69;5264751;28;20033;-72
2022/10/03 06:00:01;;;;;;;24.48;8.63;;;;;;;6.51;100.00;102522.63;5264915;28;20032;-72
2022/10/03 06:03:03;;;;;;;23.35;10.18;;;;;;;6.62;100.00;102529.84;5220552;28;20068;-72
2022/10/03 06:05:58;;;;;;;17.90;9.52;;;;;;;6.69;100.00;102524.91;5265313;28;20112;-72
2022/10/03 06:08:59;;;;;;;19.17;10.30;;;;;;;6.81;100.00;102536.50;5264790;28;20083;-72
2022/10/03 06:11:52;;;;;;;22.02;10.68;;;;;;;6.85;100.00;102541.81;5255720;28;20056;-74
2022/10/03 06:14:28;;;;;;;;;;;;;;;6.90;100.00;102539.38;5264787;28;20036;-72
2022/10/03 06:17:35;;;;;;;22.80;9.65;;;;;;;6.96;100.00;102542.16;5264178;28;19973;-72
2022/10/03 06:20:20;;;;;;;20.48;9.93;;;;;;;7.07;100.00;102542.50;5263068;28;20033;-72
2022/10/03 06:23:16;;;;;;;20.75;9.93;;;;;;;7.11;100.00;102537.41;5264092;28;20029;-72
2022/10/03 06:26:04;;;;;;;21.73;10.50;;;;;;;7.18;100.00;102543.69;5263079;28;20040;-72
2022/10/03 06:29:19;;;;;;;22.20;10.02;;;;;;;7.27;100.00;102543.94;5262918;28;20098;-72
2022/10/03 06:32:07;;;;;;;22.70;10.32;;;;;;;7.30;100.00;102551.81;5263983;28;20111;-72
2022/10/03 06:34:55;;;;;;;28.30;11.05;;;;;;;7.24;100.00;102554.22;5264023;28;20037;-72
2022/10/03 06:37:38;;;;;;;17.88;9.93;;;;;;;7.22;100.00;102553.31;5264083;28;20074;-72
2022/10/03 06:40:39;;;;;;;19.05;11.23;;;;;;;7.22;100.00;102552.44;5264279;28;20025;-72
2022/10/03 06:43:38;;;;;;;24.42;10.20;;;;;;;7.22;100.00;102561.09;5264180;28;20057;-72
2022/10/03 06:46:32;;;;;;;23.08;10.75;;;;;;;7.26;100.00;102559.44;5262922;28;20410;-71
2022/10/03 06:49:06;;;;;;;;;;;;;;;7.26;100.00;102555.16;5264383;28;20027;-72
2022/10/03 06:52:15;;;;;;;22.77;10.38;;;;;;;7.35;100.00;102551.06;5262336;28;19960;-73
2022/10/03 06:55:04;;;;;;;21.92;10.98;;;;;;;7.38;100.00;102559.81;5263301;28;20391;-72
2022/10/03 06:58:04;;;;;;;22.65;11.68;;;;;;;7.48;100.00;102558.38;5263711;28;20025;-72
2022/10/03 07:00:48;;;;;;;20.25;12.55;;;;;;;7.59;100.00;102550.91;5263159;28;20068;-72
2022/10/03 07:03:37;;;;;;;21.33;12.07;;;;;;;7.70;100.00;102562.44;5263690;28;20417;-72
2022/10/03 07:06:14;;;;;;;26.58;12.68;;;;;;;7.80;100.00;102567.03;5263880;28;20052;-72
2022/10/03 07:09:23;;;;;;;28.35;12.90;;;;;;;7.87;100.00;102575.88;5263407;28;20029;-72
2022/10/03 07:11:54;;;;;;;23.08;12.07;;;;;;;7.97;100.00;102567.50;5263385;28;20112;-72
2022/10/03 07:14:26;;;;;;;18.40;12.23;;;;;;;8.06;100.00;102569.47;5263103;28;20131;-72
2022/10/03 07:17:17;;;;;;;25.27;12.87;;;;;;;8.17;100.00;102561.97;5263055;28;20487;-72
2022/10/03 07:20:06;;;;;;;27.75;12.73;;;;;;;8.27;100.00;102568.25;5263070;28;20021;-73
2022/10/03 07:23:32;;;;;;;23.05;12.48;;;;;;;8.42;100.00;102562.56;5263307;28;20415;-72
2022/10/03 07:26:38;;;;;;;21.48;12.20;;;;;;;8.56;100.00;102574.22;5178454;28;20034;-73
2022/10/03 07:29:49;;;;;;;23.55;11.90;;;;;;;8.70;100.00;102572.81;5263125;28;20029;-73
2022/10/03 07:32:32;;;;;;;21.88;12.50;;;;;;;8.89;100.00;102581.94;5263386;28;20028;-73
2022/10/03 07:38:56;;;;;;;25.15;12.32;;;;;;;9.20;100.00;102587.81;5263076;28;20456;-73
2022/10/03 07:41:43;;;;;;;19.52;10.95;;;;;;;9.31;100.00;102590.66;5262273;28;20032;-72
2022/10/03 07:44:40;;;;;;;20.15;10.63;;;;;;;9.47;100.00;102587.53;5262885;28;20036;-73
2022/10/03 07:47:59;;;;;;;24.05;10.25;;;;;;;9.61;100.00;102585.22;5261866;28;20482;-73
2022/10/03 07:51:16;;;;;;;17.25;8.95;;;;;;;9.75;100.00;102595.91;5261415;28;20033;-73
2022/10/03 07:54:17;;;;;;;15.60;8.40;;;;;;;9.93;100.00;102602.31;5178292;28;20037;-73
2022/10/03 07:57:08;;;;;;;20.48;10.13;;;;;;;10.03;100.00;102610.34;5178509;28;20497;-73
2022/10/03 08:00:01;;;;;;;15.88;8.90;;;;;;;10.28;100.00;102604.69;5254289;28;20102;-73
2022/10/03 08:03:03;;;;;;;17.38;12.00;;;;;;;10.56;100.00;102606.97;5262196;28;20033;-72
2022/10/03 08:05:48;;;;;;;17.17;10.48;;;;;;;10.66;100.00;102610.59;5261951;28;20033;-72
2022/10/03 08:08:22;;;;;;;17.48;10.02;;;;;;;10.80;100.00;102602.97;5262272;28;20025;-72
2022/10/03 08:10:54;;;;;;;14.48;8.63;;;;;;;10.89;100.00;102604.84;5262199;28;20094;-72
2022/10/03 08:13:56;;;;;;;17.67;8.97;;;;;;;10.99;100.00;102608.47;5262148;28;20029;-73
2022/10/03 08:16:44;;;;;;;13.13;7.88;;;;;;;11.04;100.00;102609.41;5262325;28;20048;-72
2022/10/03 08:19:24;;;;;;;17.70;8.77;;;;;;;11.29;100.00;102613.25;5262802;28;20056;-73
2022/10/03 08:22:19;;;;;;;15.68;7.93;;;;;;;11.47;100.00;102604.78;5261760;28;20107;-72
2022/10/03 08:25:20;;;;;;;16.67;8.60;;;;;;;11.73;100.00;102605.09;5262077;28;20033;-72
2022/10/03 08:27:58;;;;;;;13.95;6.80;;;;;;;11.83;100.00;102606.97;5262556;28;20040;-72
2022/10/03 08:30:40;;;;;;;17.05;6.97;;;;;;;11.88;100.00;102603.50;5261230;28;20036;-72
2022/10/03 08:33:25;;;;;;;;;;;;;;;12.12;100.00;102610.78;5261387;28;20030;-72
2022/10/03 08:36:25;;;;;;;16.42;8.07;;;;;;;12.39;100.00;102612.78;5262913;28;19948;-72
2022/10/03 08:39:05;;;;;;;12.88;6.78;;;;;;;12.61;100.00;102611.22;5224456;28;20040;-72
2022/10/03 08:42:07;;;;;;;12.77;6.57;;;;;;;12.78;99.13;102608.72;5262007;28;20075;-73
2022/10/03 08:44:44;;;;;;;13.77;6.00;;;;;;;12.91;98.21;102618.44;5261073;28;20056;-73
2022/10/03 08:48:23;;;;;;;14.50;6.15;;;;;;;13.25;98.55;102618.63;5262137;28;20029;-72
2022/10/03 08:51:10;;;;;;;10.70;5.97;;;;;;;13.44;95.91;102616.13;5177537;28;20042;-72
2022/10/03 08:54:00;;;;;;;12.65;6.03;;;;;;;13.88;96.33;102622.41;5180951;28;20031;-72
2022/10/03 08:56:59;;;;;;;15.45;5.55;;;;;;;14.13;93.05;102631.22;5245416;28;20041;-73
2022/10/03 08:59:42;;;;;;;12.50;5.22;;;;;;;14.25;89.54;102623.38;5265125;28;20037;-73
2022/10/03 09:02:34;;;;;;;11.20;4.20;;;;;;;14.67;89.06;102623.44;5265993;28;20064;-73
2022/10/03 09:05:39;;;;;;;12.17;5.30;;;;;;;14.94;88.64;102619.88;5266020;28;20440;-73
2022/10/03 09:08:30;;;;;;;10.50;4.22;;;;;;;14.99;84.55;102620.75;5264686;28;20029;-73
2022/10/03 09:11:20;;;;;;;16.85;4.80;;;;;;;15.17;83.96;102618.97;5265013;28;20048;-73
2022/10/03 09:14:02;;;;;;;10.50;4.03;;;;;;;15.54;81.29;102624.97;5265784;28;20035;-73
2022/10/03 09:16:36;;;;;;;10.93;4.47;;;;;;;15.85;79.04;102635.38;5264774;28;20464;-73
2022/10/03 09:19:19;;;;;;;9.15;3.42;;;;;;;16.13;80.23;102625.56;5265214;28;20291;-73
2022/10/03 09:22:08;;;;;;;10.45;3.60;;;;;;;16.48;77.22;102621.78;5265782;28;20047;-73
2022/10/03 09:24:39;;;;;;;11.05;3.53;;;;;;;16.85;73.61;102625.88;5265364;28;20487;-73
2022/10/03 09:27:45;;;;;;;8.17;3.40;;;;;;;17.19;74.76;102621.13;5265931;28;20033;-73
2022/10/03 09:30:19;;;;;;;12.85;4.18;;;;;;;17.35;74.44;102619.19;5265593;28;20044;-73
2022/10/03 09:33:15;;;;;;;13.38;3.50;;;;;;;17.68;69.70;102619.69;5265074;28;20032;-73
2022/10/03 09:36:04;;;;;;;8.90;3.28;;;;;;;17.98;67.64;102614.88;5265114;28;20033;-71
2022/10/03 09:38:56;;;;;;;13.93;3.08;;;;;;;18.47;65.95;102608.84;5265309;28;20055;-71
2022/10/03 09:42:09;;;;;;;8.27;2.65;;;;;;;18.17;68.78;102607.56;5265039;28;20032;-71
2022/10/03 09:45:12;;;;;;;9.65;3.20;;;;;;;17.86;67.85;102606.22;5264091;28;20032;-73
2022/10/03 09:47:49;;;;;;;9.05;3.47;;;;;;;17.21;66.10;102600.94;5265361;28;20115;-73
2022/10/03 09:50:27;;;;;;;8.43;2.50;;;;;;;16.93;67.51;102598.56;5264823;28;20069;-73
2022/10/03 09:53:10;;;;;;;6.55;2.85;;;;;;;16.84;65.37;102595.13;5264802;28;20036;-73
2022/10/03 09:56:00;;;;;;;8.57;2.40;;;;;;;17.08;69.30;102600.19;5264282;28;20059;-73
2022/10/03 09:58:35;;;;;;;8.48;2.75;;;;;;;17.44;68.75;102598.00;5265034;28;20472;-73
2022/10/03 10:01:25;;;;;;;14.10;2.72;;;;;;;17.77;64.94;102594.94;5263256;28;20089;-73
2022/10/03 10:03:59;;;;;;;5.65;2.55;;;;;;;18.14;63.35;102595.28;5264842;28;20476;-73
2022/10/03 10:06:45;;;;;;;11.02;3.10;;;;;;;18.10;64.34;102588.34;5263652;28;20026;-73
2022/10/03 10:09:31;;;;;;;8.65;2.90;;;;;;;17.89;61.73;102591.28;5263902;28;20029;-73
2022/10/03 10:12:24;;;;;;;9.88;3.70;;;;;;;18.05;65.08;102590.16;5263790;28;20029;-73
2022/10/03 10:15:22;;;;;;;11.30;3.05;;;;;;;17.68;62.93;102583.63;5263485;28;20090;-73
2022/10/03 10:18:46;;;;;;;7.85;2.60;;;;;;;17.48;64.77;102583.91;5264033;28;20491;-73
2022/10/03 10:21:23;;;;;;;9.05;3.42;;;;;;;17.23;65.89;102590.38;5179663;28;20125;-73
2022/10/03 10:24:27;;;;;;;10.70;3.25;;;;;;;17.23;65.45;102585.97;5163712;28;20126;-73
2022/10/03 10:27:47;;;;;;;10.02;3.75;;;;;;;17.33;64.39;102593.78;5245328;28;20364;-73
2022/10/03 10:30:57;;;;;;;8.20;2.40;;;;;;;17.36;63.38;102586.69;5263305;28;20455;-73
2022/10/03 10:33:56;;;;;;;11.38;2.67;;;;;;;17.06;66.55;102587.91;5264017;28;20037;-73
2022/10/03 10:36:48;;;;;;;8.50;2.97;;;;;;;17.02;67.95;102583.59;5264354;28;20033;-73
2022/10/03 10:39:56;;;;;;;11.52;2.58;;;;;;;17.83;64.83;102579.88;5263104;28;20043;-73
2022/10/03 10:42:55;;;;;;;11.32;3.25;;;;;;;18.39;61.46;102589.63;5264251;28;20111;-73
2022/10/03 10:45:47;;;;;;;8.93;2.45;;;;;;;17.98;60.46;102581.47;5262631;28;20037;-73
2022/10/03 10:48:36;;;;;;;7.07;2.28;;;;;;;18.44;58.06;102582.50;5263631;28;20047;-73
2022/10/03 10:51:44;;;;;;;8.38;2.22;;;;;;;18.38;58.03;102590.50;5263881;28;20431;-73
2022/10/03 10:54:51;;;;;;;8.60;2.22;;;;;;;18.75;58.84;102579.31;5262583;28;20107;-73
2022/10/03 10:57:26;;;;;;;6.97;2.33;;;;;;;19.01;56.72;102586.75;5263137;28;20132;-73
2022/10/03 11:00:42;;;;;;;7.35;2.38;;;;;;;19.05;55.80;102585.81;5262722;28;20448;-73
2022/10/03 11:03:41;;;;;;;5.95;2.67;;;;;;;19.00;56.55;102584.16;5231390;28;20037;-72
2022/10/03 11:06:21;;;;;;;7.53;2.60;;;;;;;18.57;56.94;102586.66;5262494;28;20145;-72
2022/10/03 11:09:11;;;;;;;7.65;2.50;;;;;;;19.24;58.59;102583.69;5262339;28;20367;-72
2022/10/03 11:12:10;;;;;;;11.85;2.95;;;;;;;20.01;55.38;102589.97;5263067;28;20028;-73
2022/10/03 11:15:00;;;;;;;7.45;2.70;;;;;;;22.04;52.65;102588.75;5261670;28;20423;-72
2022/10/03 11:18:02;;;;;;;5.78;1.95;;;;;;;23.40;49.21;102581.38;5263504;28;20048;-73
2022/10/03 11:20:52;;;;;;;9.43;2.40;;;;;;;24.02;44.91;102571.84;5263119;28;20029;-73
2022/10/03 11:23:27;;;;;;;5.88;2.50;;;;;;;24.33;43.79;102573.22;5261943;28;20527;-73
2022/10/03 11:26:13;;;;;;;10.18;2.60;;;;;;;24.76;44.94;102567.84;5263076;28;20071;-73
2022/10/03 11:28:51;;;;;;;10.35;2.40;;;;;;;25.52;39.39;102573.28;5263108;28;20044;-73
2022/10/03 11:31:50;;;;;;;6.13;2.20;;;;;;;25.82;38.18;102567.38;5261935;28;20043;-73
2022/10/03 11:34:35;;;;;;;5.60;1.88;;;;;;;26.04;36.70;102567.22;5262530;28;20379;-73
2022/10/03 11:37:27;;;;;;;6.90;2.22;;;;;;;26.37;38.37;102561.09;5263295;28;20369;-73
2022/10/03 11:40:23;;;;;;;5.80;2.08;;;;;;;26.82;37.74;102556.09;5262938;28;20167;-74
2022/10/03 11:43:51;;;;;;;7.90;2.33;;;;;;;27.69;36.04;102565.63;5263078;28;20127;-73
2022/10/03 11:46:40;;;;;;;7.13;2.67;;;;;;;28.29;35.02;102568.38;5262717;28;20380;-74
2022/10/03 11:49:46;;;;;;;6.13;2.08;;;;;;;29.10;35.00;102565.19;5263318;28;20107;-73
2022/10/03 11:52:33;;;;;;;8.18;2.33;;;;;;;27.74;32.63;102561.75;5231719;28;20041;-73
2022/10/03 11:55:07;;;;;;;6.63;2.53;;;;;;;26.96;31.58;102566.94;5262694;28;20032;-73
2022/10/03 11:57:43;;;;;;;7.00;2.30;;;;;;;26.95;32.04;102564.34;5261662;28;20028;-73
2022/10/03 12:00:20;;;;;;;6.53;2.40;;;;;;;25.83;34.50;102563.78;5261170;28;20021;-73
2022/10/03 12:03:09;;;;;;;9.25;2.60;;;;;;;25.70;34.73;102560.00;5262059;28;20120;-73
2022/10/03 12:09:13;;;;;;;7.43;2.45;;;;;;;26.31;33.68;102564.09;5262471;28;20116;-73
2022/10/03 12:11:44;;;;;;;8.75;2.75;;;;;;;26.28;35.02;102562.44;5262656;28;20457;-73
2022/10/03 12:14:15;;;;;;;;;;;;;;;27.29;34.13;102561.56;5261431;28;20029;-73
2022/10/03 12:17:05;;;;;;;6.50;3.00;;;;;;;25.99;35.96;102558.59;5262399;28;19916;-73
2022/10/03 12:20:04;;;;;;;7.53;2.40;;;;;;;26.02;39.50;102553.09;5263247;28;20272;-73
2022/10/03 12:23:11;;;;;;;7.13;2.33;;;;;;;27.16;34.67;102547.13;5261789;28;20429;-72
2022/10/03 12:25:45;;;;;;;6.82;2.60;;;;;;;27.39;33.72;102539.66;5262093;28;20036;-73
2022/10/03 12:28:23;;;;;;;7.45;2.72;;;;;;;27.46;31.96;102538.34;5265980;28;20468;-73
2022/10/03 12:31:04;;;;;;;5.53;2.40;;;;;;;27.41;34.14;102537.75;5266563;28;20107;-73
2022/10/03 12:33:52;;;;;;;9.52;2.53;;;;;;;25.07;33.84;102537.97;5265215;28;20028;-72
2022/10/03 12:36:44;;;;;;;8.50;2.50;;;;;;;23.62;36.67;102540.63;5265074;28;20059;-72
2022/10/03 12:39:34;;;;;;;7.88;2.78;;;;;;;23.37;38.47;102535.41;5266718;28;20029;-73
2022/10/03 12:42:14;;;;;;;9.10;2.35;;;;;;;22.99;39.33;102532.38;5265380;28;20116;-73
2022/10/03 12:44:54;;;;;;;10.15;3.33;;;;;;;22.61;41.36;102524.03;5266198;28;20132;-73
2022/10/03 12:47:34;;;;;;;8.40;2.63;;;;;;;22.75;42.46;102519.94;5264794;28;20060;-73
2022/10/03 12:50:30;;;;;;;8.68;2.65;;;;;;;22.72;42.75;102511.22;5248624;28;20025;-73
2022/10/03 12:53:16;;;;;;;7.35;2.75;;;;;;;22.77;43.84;102518.06;5265659;28;20029;-73
2022/10/03 12:56:15;;;;;;;9.13;2.50;;;;;;;21.83;42.14;102523.06;5265784;28;20368;-73
2022/10/03 12:59:13;;;;;;;7.85;2.70;;;;;;;21.67;43.14;102526.22;5266053;28;20045;-73
2022/10/03 13:01:48;;;;;;;11.07;3.50;;;;;;;21.24;44.42;102518.72;5266133;28;20037;-71
2022/10/03 13:04:34;;;;;;;7.82;3.13;;;;;;;21.26;46.22;102519.53;5266083;28;20067;-72
2022/10/03 13:07:41;;;;;;;7.28;2.60;;;;;;;21.35;44.88;102524.56;5265165;28;20084;-72
2022/10/03 13:10:15;;;;;;;8.25;2.80;;;;;;;21.38;44.76;102519.16;5265781;28;20124;-73
2022/10/03 13:12:57;;;;;;;10.35;2.40;;;;;;;21.07;46.26;102516.53;5264122;28;20321;-72
2022/10/03 13:15:41;;;;;;;10.48;3.22;;;;;;;21.03;45.11;102520.22;5264938;28;20029;-73
2022/10/03 13:18:17;;;;;;;8.40;2.85;;;;;;;20.50;44.88;102510.16;5265002;28;20110;-73
2022/10/03 13:21:17;;;;;;;6.93;2.20;;;;;;;21.21;47.53;102516.16;5264000;28;20037;-72